Time;durP1;ratioP1;P1;durP2;ratioP2;P2;SDS_P1;SDS_P2;PMS_P1;PMS_P2;Temp;Humidity;BMP_temperature;BMP_pressure;BME280_temperature;BME280_humidity;BME280_pressure;Samples;Min_cycle;Max_cycle;Signal;HPM_P1;HPM_P2
2022/10/19 00:01:07;;;;;;;0.40;0.40;;;10.70;99.90;;;;;;5085657;28;20051;-82
2022/10/19 00:03:34;;;;;;;0.40;0.40;;;10.70;99.90;;;;;;5088566;28;20056;-83
2022/10/19 00:06:12;;;;;;;0.40;0.40;;;10.70;99.90;;;;;;5073887;28;20105;-83
2022/10/19 00:08:38;;;;;;;0.30;0.30;;;10.70;99.90;;;;;;5091649;28;20040;-83
2022/10/19 00:11:04;;;;;;;0.40;0.40;;;10.60;99.90;;;;;;5093532;28;20047;-81
2022/10/19 00:13:30;;;;;;;0.40;0.40;;;10.60;99.90;;;;;;5090135;28;20036;-82
2022/10/19 00:15:55;;;;;;;0.40;0.40;;;10.70;99.90;;;;;;5090031;28;20097;-83
2022/10/19 00:18:21;;;;;;;0.30;0.30;;;10.60;99.90;;;;;;5096054;28;20086;-81
2022/10/19 00:20:47;;;;;;;0.40;0.40;;;10.70;99.90;;;;;;5081135;28;20041;-82
2022/10/19 00:23:13;;;;;;;0.50;0.50;;;10.60;99.90;;;;;;5072080;28;20040;-84
2022/10/19 00:25:39;;;;;;;0.40;0.40;;;10.60;99.90;;;;;;5055240;28;20365;-82
2022/10/19 00:28:04;;;;;;;;;;;10.60;99.90;;;;;;5093217;28;20036;-82
2022/10/19 00:30:30;;;;;;;0.40;0.40;;;10.70;99.90;;;;;;5086705;28;19916;-83
2022/10/19 00:32:56;;;;;;;0.40;0.40;;;10.70;99.90;;;;;;5077021;28;20539;-84
2022/10/19 00:35:21;;;;;;;0.40;0.40;;;10.70;99.90;;;;;;5074946;28;20032;-84
2022/10/19 00:37:47;;;;;;;0.40;0.40;;;10.70;99.90;;;;;;5076855;28;20028;-83
2022/10/19 00:40:13;;;;;;;0.40;0.40;;;10.70;99.90;;;;;;5089469;28;20051;-83
2022/10/19 00:42:39;;;;;;;0.30;0.30;;;10.70;99.90;;;;;;5059094;28;20043;-82
2022/10/19 00:45:16;;;;;;;0.40;0.40;;;10.70;99.90;;;;;;5087901;28;20115;-81
2022/10/19 00:47:43;;;;;;;0.40;0.40;;;10.70;99.90;;;;;;5092352;28;20050;-81
2022/10/19 00:50:12;;;;;;;0.40;0.40;;;10.70;99.90;;;;;;5092294;28;20490;-83
2022/10/19 00:52:37;;;;;;;0.40;0.40;;;10.80;99.90;;;;;;5072838;28;20132;-82
2022/10/19 00:55:06;;;;;;;0.30;0.30;;;10.80;99.90;;;;;;5089809;28;20452;-81
2022/10/19 00:57:32;;;;;;;0.30;0.30;;;10.70;99.90;;;;;;5075110;28;20503;-84
2022/10/19 01:00:00;;;;;;;0.40;0.40;;;10.70;99.90;;;;;;5093865;28;20051;-83
2022/10/19 01:02:26;;;;;;;0.20;0.20;;;10.70;99.90;;;;;;5076136;28;20048;-83
2022/10/19 01:04:52;;;;;;;0.20;0.20;;;10.70;99.90;;;;;;5093204;28;20097;-82
2022/10/19 01:07:19;;;;;;;0.40;0.40;;;10.70;99.90;;;;;;5082616;28;20108;-84
2022/10/19 01:09:47;;;;;;;0.30;0.30;;;10.70;99.90;;;;;;5091288;28;20036;-83
2022/10/19 01:12:34;;;;;;;0.32;0.32;;;10.70;99.90;;;;;;5082064;28;20063;-82
2022/10/19 01:15:03;;;;;;;;;;;10.70;99.90;;;;;;5091870;28;20101;-82
2022/10/19 01:17:50;;;;;;;0.40;0.40;;;10.70;99.90;;;;;;5087126;28;20369;-81
2022/10/19 01:20:19;;;;;;;;;;;10.70;99.90;;;;;;5087210;28;20494;-82
2022/10/19 01:23:07;;;;;;;0.30;0.30;;;10.70;99.90;;;;;;5067748;28;20312;-81
2022/10/19 01:26:18;;;;;;;1.00;1.00;;;10.70;99.90;;;;;;5081134;28;20043;-81
2022/10/19 01:29:09;;;;;;;0.40;0.40;;;10.70;99.90;;;;;;5059414;28;20394;-82
2022/10/19 01:31:57;;;;;;;0.30;0.30;;;10.70;99.90;;;;;;5088508;28;20110;-83
2022/10/19 01:34:39;;;;;;;0.32;0.32;;;10.70;99.90;;;;;;5092710;28;20054;-82
2022/10/19 01:37:35;;;;;;;0.43;0.43;;;10.70;99.90;;;;;;5091077;28;20051;-85
2022/10/19 01:40:19;;;;;;;0.50;0.50;;;10.70;99.90;;;;;;5088511;28;20060;-83
2022/10/19 01:43:02;;;;;;;0.40;0.40;;;10.60;99.90;;;;;;5095593;28;20116;-84
2022/10/19 01:45:51;;;;;;;0.40;0.40;;;10.60;99.90;;;;;;5081041;28;20115;-83
2022/10/19 01:48:25;;;;;;;0.40;0.40;;;10.60;99.90;;;;;;5094938;28;20044;-82
2022/10/19 01:51:09;;;;;;;0.30;0.30;;;10.60;99.90;;;;;;5090683;28;20328;-82
2022/10/19 01:53:41;;;;;;;0.30;0.30;;;10.50;99.90;;;;;;5090941;28;20101;-83
2022/10/19 01:56:09;;;;;;;0.40;0.40;;;10.50;99.90;;;;;;5086846;28;20044;-83
2022/10/19 01:58:37;;;;;;;0.30;0.30;;;10.50;99.90;;;;;;5088078;28;20489;-83
2022/10/19 02:01:07;;;;;;;0.30;0.30;;;10.50;99.90;;;;;;5084256;28;20083;-84
2022/10/19 02:03:34;;;;;;;0.30;0.30;;;10.50;99.90;;;;;;5089129;28;20564;-83
2022/10/19 02:06:05;;;;;;;0.30;0.30;;;10.50;99.90;;;;;;5092065;28;20122;-83
2022/10/19 02:08:39;;;;;;;0.55;0.55;;;10.50;99.90;;;;;;5067573;28;20162;-83
2022/10/19 02:11:05;;;;;;;0.60;0.60;;;10.50;99.90;;;;;;5084133;28;20544;-82
2022/10/19 02:13:33;;;;;;;0.30;0.30;;;10.50;99.90;;;;;;5091803;28;20079;-83
2022/10/19 02:16:02;;;;;;;0.93;0.93;;;10.50;99.90;;;;;;5075126;28;20459;-82
2022/10/19 02:18:37;;;;;;;0.40;0.40;;;10.50;99.90;;;;;;5087816;28;20485;-83
2022/10/19 02:21:04;;;;;;;0.40;0.40;;;10.70;99.90;;;;;;5082769;28;20044;-83
2022/10/19 02:23:30;;;;;;;0.40;0.40;;;10.80;99.90;;;;;;5090198;28;20071;-83
2022/10/19 02:25:56;;;;;;;0.32;0.32;;;10.90;99.90;;;;;;5061338;28;20473;-83
2022/10/19 02:28:24;;;;;;;0.30;0.30;;;10.80;99.90;;;;;;5072861;28;20042;-82
2022/10/19 02:30:50;;;;;;;0.65;0.65;;;10.80;99.90;;;;;;5085645;28;20036;-83
2022/10/19 02:33:22;;;;;;;0.40;0.40;;;10.70;99.90;;;;;;5075051;28;20409;-81
2022/10/19 02:35:47;;;;;;;0.40;0.40;;;10.70;99.90;;;;;;5080914;28;20115;-80
2022/10/19 02:38:18;;;;;;;0.43;0.43;;;10.90;99.90;;;;;;5069942;28;20516;-81
2022/10/19 02:40:58;;;;;;;0.30;0.30;;;10.80;99.90;;;;;;5072342;28;20079;-80
2022/10/19 02:43:26;;;;;;;0.30;0.30;;;10.80;99.90;;;;;;5080003;28;20036;-82
2022/10/19 02:46:00;;;;;;;0.50;0.50;;;10.80;99.90;;;;;;5088641;28;20048;-83
2022/10/19 02:48:28;;;;;;;0.47;0.47;;;10.70;99.90;;;;;;5091632;28;20108;-83
2022/10/19 02:50:58;;;;;;;0.30;0.30;;;10.60;99.90;;;;;;5091053;28;20436;-82
2022/10/19 02:53:24;;;;;;;0.40;0.40;;;10.50;99.90;;;;;;5051969;28;20048;-83
2022/10/19 02:55:50;;;;;;;0.40;0.40;;;10.40;99.90;;;;;;5092251;28;20405;-82
2022/10/19 02:58:16;;;;;;;0.40;0.40;;;10.20;99.90;;;;;;5076999;28;20448;-82
2022/10/19 03:00:42;;;;;;;0.50;0.50;;;10.00;99.90;;;;;;5054312;28;20040;-82
2022/10/19 03:03:10;;;;;;;0.40;0.40;;;9.90;99.90;;;;;;5089751;28;20062;-83
2022/10/19 03:05:36;;;;;;;0.30;0.30;;;9.70;99.90;;;;;;5090656;28;20474;-83
2022/10/19 03:08:02;;;;;;;0.30;0.30;;;9.60;99.90;;;;;;5090252;28;20113;-82
2022/10/19 03:10:33;;;;;;;0.40;0.40;;;9.50;99.90;;;;;;5054104;28;20048;-83
2022/10/19 03:12:59;;;;;;;0.40;0.40;;;9.50;99.90;;;;;;5063031;28;20040;-82
2022/10/19 03:15:27;;;;;;;0.43;0.43;;;9.50;99.90;;;;;;5090274;28;20404;-83
2022/10/19 03:17:54;;;;;;;0.50;0.50;;;9.50;99.90;;;;;;5090931;28;20044;-81
2022/10/19 03:20:20;;;;;;;0.40;0.40;;;9.50;99.90;;;;;;5074242;28;20043;-82
2022/10/19 03:22:45;;;;;;;1.23;1.13;;;9.50;99.90;;;;;;5065102;28;20051;-80
2022/10/19 03:25:11;;;;;;;0.40;0.40;;;9.60;99.90;;;;;;5087800;28;20535;-82
2022/10/19 03:27:36;;;;;;;0.50;0.50;;;9.70;99.90;;;;;;5087674;28;20059;-82
2022/10/19 03:30:03;;;;;;;0.40;0.40;;;9.60;99.90;;;;;;5070404;28;20075;-82
2022/10/19 03:32:28;;;;;;;0.40;0.40;;;9.60;99.90;;;;;;5084212;28;20075;-82
2022/10/19 03:34:54;;;;;;;0.50;0.50;;;9.60;99.90;;;;;;5068986;28;20381;-80
2022/10/19 03:37:21;;;;;;;0.50;0.50;;;9.60;99.90;;;;;;5078785;28;20048;-82
2022/10/19 03:39:47;;;;;;;0.40;0.40;;;9.60;99.90;;;;;;5091001;28;20519;-81
2022/10/19 03:42:12;;;;;;;0.50;0.50;;;9.60;99.90;;;;;;5073063;28;20044;-82
2022/10/19 03:44:38;;;;;;;0.40;0.40;;;9.70;99.90;;;;;;5069401;28;20036;-83
2022/10/19 03:47:04;;;;;;;0.40;0.40;;;9.70;99.90;;;;;;5090924;28;20063;-83
2022/10/19 03:49:30;;;;;;;0.40;0.40;;;9.70;99.90;;;;;;5055804;28;20032;-83
2022/10/19 03:51:55;;;;;;;0.63;0.63;;;9.70;99.90;;;;;;5080202;28;20047;-82
2022/10/19 03:54:21;;;;;;;0.47;0.47;;;9.70;99.90;;;;;;5089154;28;20512;-82
2022/10/19 03:56:46;;;;;;;0.40;0.40;;;9.80;99.90;;;;;;5066082;28;20055;-82
2022/10/19 03:59:14;;;;;;;0.40;0.40;;;9.80;99.90;;;;;;5091470;28;20040;-83
2022/10/19 04:01:44;;;;;;;0.40;0.40;;;9.80;99.90;;;;;;5090388;28;20083;-82
2022/10/19 04:04:15;;;;;;;0.30;0.30;;;9.80;99.90;;;;;;5090089;28;20036;-82
2022/10/19 04:06:43;;;;;;;0.32;0.32;;;9.90;99.90;;;;;;5084542;28;20048;-82
2022/10/19 04:09:13;;;;;;;0.32;0.32;;;9.70;99.90;;;;;;5089378;28;20036;-81
2022/10/19 04:11:39;;;;;;;0.40;0.40;;;9.90;99.90;;;;;;5082375;28;20044;-81
2022/10/19 04:14:05;;;;;;;0.50;0.50;;;9.80;99.90;;;;;;5091641;28;20067;-82
2022/10/19 04:16:32;;;;;;;0.30;0.30;;;9.80;99.90;;;;;;5086436;28;20044;-82
2022/10/19 04:19:00;;;;;;;0.40;0.40;;;9.80;99.90;;;;;;5073422;28;20044;-82
2022/10/19 04:21:37;;;;;;;0.40;0.40;;;9.80;99.90;;;;;;5084551;28;20501;-82
2022/10/19 04:24:06;;;;;;;0.40;0.40;;;9.70;99.90;;;;;;5087589;28;20582;-82
2022/10/19 04:26:34;;;;;;;0.40;0.40;;;9.70;99.90;;;;;;5087443;28;20046;-82
2022/10/19 04:29:00;;;;;;;0.30;0.30;;;9.60;99.90;;;;;;5090603;28;20386;-83
2022/10/19 04:31:27;;;;;;;0.40;0.40;;;9.50;99.90;;;;;;5087031;28;20048;-84
2022/10/19 04:33:53;;;;;;;0.40;0.40;;;9.50;99.90;;;;;;5091448;28;20052;-83
2022/10/19 04:36:20;;;;;;;0.45;0.45;;;9.60;99.90;;;;;;5085232;28;20051;-82
2022/10/19 04:38:46;;;;;;;0.40;0.40;;;9.60;99.90;;;;;;5088169;28;20051;-82
2022/10/19 04:41:13;;;;;;;;;;;9.60;99.90;;;;;;5094794;28;20070;-82
2022/10/19 04:43:39;;;;;;;0.50;0.50;;;9.60;99.90;;;;;;5094229;28;19916;-81
2022/10/19 04:46:07;;;;;;;0.40;0.40;;;9.50;99.90;;;;;;5081716;28;20047;-82
2022/10/19 04:48:34;;;;;;;0.45;0.45;;;9.50;99.90;;;;;;5090254;28;20041;-83
2022/10/19 04:51:02;;;;;;;0.40;0.40;;;9.50;99.90;;;;;;5075964;28;20052;-81
2022/10/19 04:53:28;;;;;;;0.43;0.43;;;9.50;99.90;;;;;;5093053;28;20048;-84
2022/10/19 04:55:55;;;;;;;0.57;0.57;;;9.50;99.90;;;;;;5089135;28;20132;-81
2022/10/19 04:58:20;;;;;;;0.40;0.40;;;9.50;99.90;;;;;;5064226;28;20138;-83
2022/10/19 05:00:47;;;;;;;0.40;0.40;;;9.40;99.90;;;;;;5085801;28;20132;-83
2022/10/19 05:03:13;;;;;;;0.47;0.47;;;9.40;99.90;;;;;;5087427;28;20051;-83
2022/10/19 05:05:39;;;;;;;0.50;0.50;;;9.40;99.90;;;;;;5085870;28;20397;-83
2022/10/19 05:08:05;;;;;;;0.50;0.50;;;9.40;99.90;;;;;;5072524;28;20042;-84
2022/10/19 05:10:31;;;;;;;0.30;0.30;;;9.40;99.90;;;;;;5091268;28;20032;-84
2022/10/19 05:12:58;;;;;;;0.43;0.43;;;9.50;99.90;;;;;;5075710;28;20040;-83
2022/10/19 05:15:24;;;;;;;0.50;0.50;;;9.50;99.90;;;;;;5097421;28;20047;-84
2022/10/19 05:17:50;;;;;;;0.43;0.43;;;9.40;99.90;;;;;;5094451;28;20047;-81
2022/10/19 05:20:15;;;;;;;0.40;0.40;;;9.50;99.90;;;;;;5075812;28;20044;-83
2022/10/19 05:22:41;;;;;;;0.45;0.45;;;9.60;99.90;;;;;;5094959;28;20100;-82
2022/10/19 05:25:07;;;;;;;0.40;0.40;;;9.60;99.90;;;;;;5085742;28;20490;-82
2022/10/19 05:27:33;;;;;;;0.50;0.50;;;9.70;99.90;;;;;;5097435;28;20400;-83
2022/10/19 05:29:58;;;;;;;0.47;0.47;;;9.70;99.90;;;;;;5088980;28;20043;-83
2022/10/19 05:32:25;;;;;;;0.40;0.40;;;9.70;99.90;;;;;;5072959;28;20051;-82
2022/10/19 05:34:51;;;;;;;0.40;0.40;;;9.70;99.90;;;;;;5060605;28;20048;-80
2022/10/19 05:37:17;;;;;;;0.40;0.40;;;9.80;99.90;;;;;;5076061;28;20044;-82
2022/10/19 05:39:42;;;;;;;0.40;0.40;;;9.90;99.90;;;;;;5085482;28;20062;-82
2022/10/19 05:42:08;;;;;;;0.43;0.43;;;9.90;99.90;;;;;;5085305;28;20551;-82
2022/10/19 05:44:34;;;;;;;0.40;0.40;;;9.90;99.90;;;;;;5065295;28;20534;-82
2022/10/19 05:47:00;;;;;;;;;;;9.90;99.90;;;;;;5092537;28;20040;-82
2022/10/19 05:49:26;;;;;;;0.50;0.50;;;9.90;99.90;;;;;;5091671;28;19916;-81
2022/10/19 05:51:51;;;;;;;0.38;0.38;;;9.90;99.90;;;;;;5085556;28;20036;-82
2022/10/19 05:54:17;;;;;;;0.50;0.50;;;9.90;99.90;;;;;;5073319;28;20037;-81
2022/10/19 05:56:43;;;;;;;;;;;10.00;99.90;;;;;;5087310;28;20083;-80
2022/10/19 05:59:13;;;;;;;0.40;0.40;;;10.00;99.90;;;;;;5089912;28;19916;-82
2022/10/19 06:01:38;;;;;;;0.40;0.40;;;10.00;99.90;;;;;;5078303;28;20121;-83
2022/10/19 06:04:06;;;;;;;0.40;0.40;;;10.00;99.90;;;;;;5089971;28;20085;-83
2022/10/19 06:06:37;;;;;;;0.40;0.40;;;10.00;99.90;;;;;;5082375;28;20046;-82
2022/10/19 06:09:03;;;;;;;0.30;0.30;;;10.00;99.90;;;;;;5082238;28;20044;-83
2022/10/19 06:11:32;;;;;;;0.40;0.40;;;10.00;99.90;;;;;;5085162;28;20048;-83
2022/10/19 06:14:01;;;;;;;0.35;0.35;;;10.10;99.90;;;;;;5067856;28;20075;-82
2022/10/19 06:16:28;;;;;;;0.40;0.40;;;10.00;99.90;;;;;;5064238;28;20503;-82
2022/10/19 06:18:54;;;;;;;0.43;0.43;;;10.10;99.90;;;;;;5082180;28;20393;-82
2022/10/19 06:21:22;;;;;;;0.40;0.40;;;10.10;99.90;;;;;;5073860;28;20512;-82
2022/10/19 06:23:53;;;;;;;0.30;0.30;;;10.10;99.90;;;;;;5071999;28;20119;-82
2022/10/19 06:26:19;;;;;;;0.40;0.40;;;10.10;99.90;;;;;;5054347;28;20177;-82
2022/10/19 06:28:45;;;;;;;0.50;0.50;;;10.20;99.90;;;;;;5083495;28;20048;-82
2022/10/19 06:31:13;;;;;;;0.32;0.32;;;10.10;99.90;;;;;;5088997;28;20401;-82
2022/10/19 06:33:40;;;;;;;0.40;0.40;;;10.20;99.90;;;;;;5085104;28;20047;-82
2022/10/19 06:36:11;;;;;;;0.32;0.32;;;10.20;99.90;;;;;;5062339;28;20079;-82
2022/10/19 06:38:37;;;;;;;0.22;0.22;;;10.30;99.90;;;;;;5076650;28;20067;-82
2022/10/19 06:41:03;;;;;;;0.30;0.30;;;10.30;99.90;;;;;;5088270;28;20044;-81
2022/10/19 06:43:29;;;;;;;0.35;0.35;;;10.30;99.90;;;;;;5085304;28;20040;-82
2022/10/19 06:45:55;;;;;;;0.45;0.45;;;10.30;99.90;;;;;;5086300;28;20035;-82
2022/10/19 06:48:21;;;;;;;0.40;0.40;;;10.30;99.90;;;;;;5080206;28;20071;-82
2022/10/19 06:51:03;;;;;;;0.43;0.43;;;10.30;99.90;;;;;;5087555;28;20063;-82
2022/10/19 06:53:29;;;;;;;0.40;0.40;;;10.30;99.90;;;;;;5084426;28;20036;-81
2022/10/19 06:55:59;;;;;;;0.55;0.55;;;10.30;99.90;;;;;;5075644;28;20100;-82
2022/10/19 06:58:25;;;;;;;0.35;0.35;;;10.30;99.90;;;;;;5087083;28;20040;-82
2022/10/19 07:00:58;;;;;;;0.40;0.40;;;10.30;99.90;;;;;;5057621;28;20440;-82
2022/10/19 07:03:26;;;;;;;0.47;0.47;;;10.30;99.90;;;;;;5074332;28;20039;-82
2022/10/19 07:05:53;;;;;;;0.30;0.30;;;10.30;99.90;;;;;;5088059;28;20036;-83
2022/10/19 07:08:19;;;;;;;0.40;0.40;;;10.30;99.90;;;;;;5075816;28;20083;-83
2022/10/19 07:10:52;;;;;;;0.40;0.40;;;10.30;99.90;;;;;;5078607;28;20165;-83
2022/10/19 07:13:19;;;;;;;0.38;0.38;;;10.40;99.90;;;;;;5067708;28;20039;-82
2022/10/19 07:15:45;;;;;;;0.40;0.40;;;10.30;99.90;;;;;;5082327;28;20075;-82
2022/10/19 07:18:11;;;;;;;0.40;0.40;;;10.40;99.90;;;;;;5089015;28;20071;-82
2022/10/19 07:20:36;;;;;;;0.40;0.40;;;10.50;99.90;;;;;;5099309;28;20072;-83
2022/10/19 07:23:02;;;;;;;0.50;0.50;;;10.50;99.90;;;;;;5080606;28;20048;-83
2022/10/19 07:25:29;;;;;;;0.40;0.40;;;10.60;99.90;;;;;;5072708;28;20036;-82
2022/10/19 07:27:56;;;;;;;0.40;0.40;;;10.60;99.90;;;;;;5084217;28;20048;-83
2022/10/19 07:30:22;;;;;;;0.40;0.40;;;10.70;99.90;;;;;;5081183;28;20108;-82
2022/10/19 07:32:48;;;;;;;0.40;0.40;;;10.70;99.90;;;;;;5070269;28;20046;-82
2022/10/19 07:35:14;;;;;;;0.35;0.35;;;10.80;99.90;;;;;;5090648;28;20051;-82
2022/10/19 07:37:40;;;;;;;0.40;0.40;;;10.90;99.90;;;;;;5089480;28;20501;-82
2022/10/19 07:40:06;;;;;;;0.40;0.40;;;10.90;99.90;;;;;;5077583;28;20052;-80
2022/10/19 07:42:32;;;;;;;0.40;0.40;;;11.10;99.90;;;;;;5084689;28;20079;-80
2022/10/19 07:44:58;;;;;;;0.30;0.30;;;11.10;99.90;;;;;;5056271;28;20075;-82
2022/10/19 07:47:23;;;;;;;0.30;0.30;;;11.20;99.90;;;;;;5087687;28;20465;-81
2022/10/19 07:49:49;;;;;;;0.30;0.30;;;11.30;99.90;;;;;;5069785;28;20103;-82
2022/10/19 07:52:15;;;;;;;0.40;0.40;;;11.30;99.90;;;;;;5078186;28;20039;-80
2022/10/19 07:54:41;;;;;;;;;;;11.40;99.90;;;;;;5066799;28;20041;-82
2022/10/19 07:57:14;;;;;;;0.30;0.30;;;11.40;99.90;;;;;;5071620;28;20392;-82
2022/10/19 07:59:40;;;;;;;0.40;0.40;;;11.50;99.90;;;;;;5083116;28;20093;-81
2022/10/19 08:02:14;;;;;;;0.40;0.40;;;11.60;99.90;;;;;;5066682;28;20522;-81
2022/10/19 08:04:41;;;;;;;0.40;0.40;;;11.60;99.90;;;;;;5076865;28;20036;-80
2022/10/19 08:07:07;;;;;;;0.30;0.30;;;11.70;99.90;;;;;;5072846;28;20047;-81
2022/10/19 08:09:33;;;;;;;0.30;0.30;;;11.80;99.90;;;;;;5065684;28;20044;-81
2022/10/19 08:12:00;;;;;;;0.30;0.30;;;11.90;99.90;;;;;;5076869;28;20055;-80
2022/10/19 08:14:26;;;;;;;0.30;0.30;;;12.00;99.90;;;;;;5084128;28;20036;-82
2022/10/19 08:16:51;;;;;;;0.30;0.30;;;12.10;99.90;;;;;;5085930;28;20071;-81
2022/10/19 08:19:17;;;;;;;0.30;0.30;;;12.10;99.90;;;;;;5070372;28;20047;-80
2022/10/19 08:21:45;;;;;;;0.40;0.40;;;12.20;99.90;;;;;;5054047;28;20406;-81
2022/10/19 08:24:12;;;;;;;0.10;0.10;;;12.20;99.90;;;;;;5061527;28;20040;-82
2022/10/19 08:26:39;;;;;;;0.20;0.20;;;12.30;99.90;;;;;;5082768;28;20040;-82
2022/10/19 08:29:12;;;;;;;0.30;0.30;;;12.40;99.90;;;;;;5066037;28;20043;-79
2022/10/19 08:31:39;;;;;;;0.30;0.30;;;12.40;99.90;;;;;;5103149;28;20459;-79
2022/10/19 08:34:05;;;;;;;0.30;0.30;;;12.50;99.90;;;;;;5098759;28;20138;-80
2022/10/19 08:36:31;;;;;;;;;;;12.50;99.90;;;;;;5055457;28;20036;-82
2022/10/19 08:38:58;;;;;;;0.30;0.30;;;12.60;99.90;;;;;;5066761;28;19924;-82
2022/10/19 08:41:49;;;;;;;0.30;0.30;;;12.70;99.90;;;;;;5058639;28;20137;-81
2022/10/19 08:44:32;;;;;;;0.30;0.30;;;12.70;99.90;;;;;;5077911;28;20517;-83
2022/10/19 08:47:37;;;;;;;0.30;0.30;;;12.80;99.90;;;;;;5086352;28;20044;-81
2022/10/19 08:50:22;;;;;;;0.30;0.30;;;12.80;99.90;;;;;;5061145;28;20446;-80
2022/10/19 08:52:59;;;;;;;0.35;0.35;;;12.80;99.90;;;;;;5062081;28;20040;-81
2022/10/19 08:55:51;;;;;;;0.30;0.30;;;12.90;99.90;;;;;;5079323;28;20126;-82
2022/10/19 08:58:34;;;;;;;0.30;0.30;;;13.00;99.90;;;;;;5086245;28;20046;-82
2022/10/19 09:01:20;;;;;;;0.30;0.30;;;13.10;99.90;;;;;;5087462;28;20074;-79
2022/10/19 09:03:51;;;;;;;0.30;0.30;;;13.20;99.90;;;;;;5074306;28;20051;-80
2022/10/19 09:06:56;;;;;;;0.30;0.30;;;13.30;99.90;;;;;;5092726;28;20382;-79
2022/10/19 09:09:22;;;;;;;0.40;0.40;;;13.40;99.90;;;;;;5075652;28;20457;-80
2022/10/19 09:11:51;;;;;;;0.20;0.20;;;13.50;99.90;;;;;;5085239;28;20048;-81
2022/10/19 09:14:29;;;;;;;0.30;0.30;;;13.60;99.90;;;;;;5098433;28;20047;-81
2022/10/19 09:17:00;;;;;;;0.30;0.30;;;13.60;99.90;;;;;;5080067;28;20040;-80
2022/10/19 09:19:29;;;;;;;0.20;0.20;;;13.70;99.90;;;;;;5089342;28;20393;-82
2022/10/19 09:22:26;;;;;;;0.30;0.30;;;13.80;99.90;;;;;;5073876;28;20052;-81
2022/10/19 09:25:05;;;;;;;0.30;0.30;;;13.80;99.90;;;;;;5090644;28;20129;-81
2022/10/19 09:27:37;;;;;;;0.28;0.28;;;13.80;99.90;;;;;;5085129;28;20086;-81
2022/10/19 09:30:22;;;;;;;0.30;0.30;;;13.80;99.90;;;;;;5085462;28;20400;-80
2022/10/19 09:32:59;;;;;;;0.30;0.30;;;13.80;99.90;;;;;;5088261;28;20048;-80
2022/10/19 09:35:41;;;;;;;0.30;0.30;;;13.80;99.90;;;;;;5081647;28;20084;-80
2022/10/19 09:38:11;;;;;;;0.30;0.30;;;13.80;99.90;;;;;;5086201;28;20420;-79
2022/10/19 09:40:36;;;;;;;0.30;0.30;;;13.80;99.90;;;;;;5091527;28;20048;-81
2022/10/19 09:43:18;;;;;;;0.30;0.30;;;13.80;99.90;;;;;;5056797;28;20040;-81
2022/10/19 09:46:08;;;;;;;0.20;0.20;;;13.80;99.90;;;;;;5090772;28;20040;-81
2022/10/19 09:48:46;;;;;;;0.22;0.22;;;13.90;99.90;;;;;;5085980;28;20455;-83
2022/10/19 09:51:13;;;;;;;0.20;0.20;;;13.90;99.90;;;;;;5055742;28;20048;-81
2022/10/19 09:53:44;;;;;;;0.38;0.38;;;13.90;99.90;;;;;;5085377;28;20516;-81
2022/10/19 09:56:24;;;;;;;0.30;0.30;;;13.90;99.90;;;;;;5084458;28;20044;-82
2022/10/19 09:58:56;;;;;;;0.30;0.30;;;13.90;99.90;;;;;;5070686;28;20032;-80
2022/10/19 10:01:30;;;;;;;0.20;0.20;;;13.90;99.90;;;;;;5076224;28;20124;-81
2022/10/19 10:04:29;;;;;;;0.20;0.20;;;13.90;99.90;;;;;;5079167;28;20143;-81
2022/10/19 10:06:56;;;;;;;0.30;0.30;;;13.90;99.90;;;;;;5049040;28;20063;-80
2022/10/19 10:09:26;;;;;;;0.20;0.20;;;13.90;99.90;;;;;;5083664;28;20053;-81
2022/10/19 10:11:53;;;;;;;0.30;0.30;;;13.90;99.90;;;;;;5071716;28;20389;-82
2022/10/19 10:14:24;;;;;;;0.20;0.20;;;13.90;99.90;;;;;;5101035;28;20048;-80
2022/10/19 10:17:13;;;;;;;0.30;0.30;;;13.90;99.90;;;;;;5078824;28;20044;-81
2022/10/19 10:19:50;;;;;;;0.20;0.20;;;14.00;99.90;;;;;;5062010;28;20052;-81
2022/10/19 10:22:46;;;;;;;0.40;0.40;;;13.50;99.90;;;;;;5090386;28;20048;-79
2022/10/19 10:25:17;;;;;;;0.20;0.20;;;14.00;99.90;;;;;;5089625;28;20407;-82
2022/10/19 10:28:15;;;;;;;0.30;0.30;;;14.00;99.90;;;;;;5078706;28;20047;-83
2022/10/19 10:30:44;;;;;;;0.20;0.20;;;14.00;99.90;;;;;;5077407;28;20404;-79
2022/10/19 10:33:24;;;;;;;0.32;0.32;;;14.10;99.90;;;;;;5084082;28;20181;-79
2022/10/19 10:35:54;;;;;;;0.20;0.20;;;14.10;99.90;;;;;;5072713;28;20401;-82
2022/10/19 10:38:33;;;;;;;0.20;0.20;;;14.20;99.90;;;;;;5089715;28;20040;-81
2022/10/19 10:41:08;;;;;;;0.40;0.40;;;14.20;99.90;;;;;;5084433;28;20110;-80
2022/10/19 10:43:36;;;;;;;0.25;0.25;;;14.20;99.90;;;;;;5079077;28;20068;-81
2022/10/19 10:46:33;;;;;;;0.25;0.25;;;14.20;99.90;;;;;;5089816;28;20079;-81
2022/10/19 10:49:03;;;;;;;0.30;0.30;;;14.20;99.90;;;;;;5103387;28;20397;-82
2022/10/19 10:51:37;;;;;;;0.30;0.30;;;14.40;99.90;;;;;;5083686;28;20052;-82
2022/10/19 10:54:17;;;;;;;0.20;0.20;;;14.50;99.90;;;;;;5072995;28;20477;-80
2022/10/19 10:56:53;;;;;;;0.30;0.30;;;14.70;99.90;;;;;;5084281;28;20036;-80
2022/10/19 10:59:29;;;;;;;0.20;0.20;;;14.70;99.90;;;;;;5080295;28;20567;-82
2022/10/19 11:02:23;;;;;;;0.30;0.30;;;14.90;99.90;;;;;;5084717;28;20054;-81
2022/10/19 11:04:55;;;;;;;0.30;0.30;;;15.00;99.90;;;;;;5080601;28;20044;-80
2022/10/19 11:07:25;;;;;;;0.30;0.30;;;15.10;99.90;;;;;;5082588;28;20051;-82
2022/10/19 11:09:58;;;;;;;0.32;0.32;;;15.10;99.90;;;;;;5085110;28;20121;-80
2022/10/19 11:12:48;;;;;;;0.10;0.10;;;15.20;99.90;;;;;;5064816;28;20188;-83
2022/10/19 11:15:21;;;;;;;0.30;0.30;;;15.20;99.90;;;;;;5078983;28;20047;-79
2022/10/19 11:18:13;;;;;;;0.30;0.30;;;15.30;99.90;;;;;;5091407;28;20079;-81
2022/10/19 11:20:47;;;;;;;0.30;0.30;;;15.30;99.90;;;;;;5064595;28;20040;-81
2022/10/19 11:23:35;;;;;;;0.30;0.30;;;15.30;99.90;;;;;;5071109;28;21632;-79
2022/10/19 11:26:37;;;;;;;0.60;0.60;;;15.20;99.90;;;;;;5077285;28;20036;-81
2022/10/19 11:29:18;;;;;;;0.60;0.55;;;15.20;99.90;;;;;;5084052;28;20121;-79
2022/10/19 11:31:48;;;;;;;0.50;0.50;;;15.20;99.90;;;;;;5063585;28;20186;-78
2022/10/19 11:34:38;;;;;;;2.78;1.48;;;15.20;99.90;;;;;;5076443;28;20043;-82
2022/10/19 11:37:37;;;;;;;7.22;0.55;;;15.30;99.90;;;;;;5075593;28;20735;-79
2022/10/19 11:40:09;;;;;;;0.22;0.22;;;15.40;99.90;;;;;;5055265;28;20060;-80
2022/10/19 11:42:53;;;;;;;0.90;0.90;;;15.50;99.90;;;;;;5077732;28;20121;-80
2022/10/19 11:45:44;;;;;;;0.20;0.20;;;15.60;99.90;;;;;;5078731;28;20105;-84
2022/10/19 11:48:42;;;;;;;0.28;0.28;;;15.60;99.90;;;;;;5085482;28;20074;-78
2022/10/19 11:51:48;;;;;;;1.58;1.48;;;15.40;99.90;;;;;;5082127;28;21471;-80
2022/10/19 11:54:38;;;;;;;0.82;0.82;;;15.30;99.90;;;;;;5065465;28;20415;-80
2022/10/19 11:57:19;;;;;;;0.20;0.20;;;15.10;99.90;;;;;;5080558;28;20044;-81
2022/10/19 11:59:45;;;;;;;0.30;0.30;;;14.90;99.90;;;;;;5065039;28;20044;-80
2022/10/19 12:02:44;;;;;;;0.32;0.32;;;14.70;99.90;;;;;;5064445;28;20051;-81
2022/10/19 12:05:11;;;;;;;0.20;0.20;;;14.60;99.90;;;;;;5091343;28;20328;-79
2022/10/19 12:08:17;;;;;;;0.20;0.20;;;14.60;99.90;;;;;;5066051;28;20382;-80
2022/10/19 12:11:22;;;;;;;1.25;1.15;;;14.80;99.90;;;;;;5079126;28;20037;-80
2022/10/19 12:13:55;;;;;;;0.30;0.30;;;15.00;99.90;;;;;;5049088;28;20059;-81
2022/10/19 12:16:35;;;;;;;0.20;0.20;;;15.30;99.90;;;;;;5087209;28;20039;-80
2022/10/19 12:19:03;;;;;;;1.10;1.10;;;15.50;99.90;;;;;;5089255;28;20044;-80
2022/10/19 12:21:33;;;;;;;0.30;0.30;;;15.60;99.90;;;;;;5087629;28;20059;-81
2022/10/19 12:24:02;;;;;;;0.20;0.20;;;15.70;99.90;;;;;;5064990;28;20040;-81
2022/10/19 12:26:31;;;;;;;0.30;0.30;;;15.80;99.90;;;;;;5074845;28;20032;-81
2022/10/19 12:29:00;;;;;;;0.40;0.40;;;15.80;99.90;;;;;;5069010;28;20048;-82
2022/10/19 12:31:28;;;;;;;0.20;0.20;;;15.90;99.90;;;;;;5073599;28;20039;-83
2022/10/19 12:34:05;;;;;;;0.25;0.25;;;15.90;99.90;;;;;;5072990;28;20075;-77
2022/10/19 12:36:40;;;;;;;0.32;0.32;;;15.70;99.90;;;;;;5085415;28;20131;-81
2022/10/19 12:39:29;;;;;;;0.50;0.50;;;15.40;99.90;;;;;;5087188;28;20098;-81
2022/10/19 12:42:22;;;;;;;0.28;0.28;;;15.20;99.90;;;;;;5062071;28;20051;-79
2022/10/19 12:45:13;;;;;;;0.20;0.20;;;15.00;99.90;;;;;;5079589;28;20035;-81
2022/10/19 12:47:39;;;;;;;0.30;0.30;;;15.00;99.90;;;;;;5062547;28;20062;-80
2022/10/19 12:50:06;;;;;;;3.03;0.93;;;15.20;99.90;;;;;;5089172;28;20032;-80
2022/10/19 12:52:47;;;;;;;0.30;0.30;;;15.60;99.90;;;;;;5061793;28;20077;-82
2022/10/19 12:55:33;;;;;;;0.20;0.20;;;15.90;99.90;;;;;;5057796;28;20087;-80
2022/10/19 12:58:21;;;;;;;0.30;0.30;;;16.00;99.90;;;;;;5091341;28;20799;-80
2022/10/19 13:01:01;;;;;;;0.30;0.30;;;16.20;99.90;;;;;;5089890;28;20051;-80
2022/10/19 13:03:34;;;;;;;0.30;0.30;;;16.10;99.90;;;;;;5100761;28;20485;-82
2022/10/19 13:06:09;;;;;;;0.20;0.20;;;15.90;99.90;;;;;;5073313;28;20366;-79
2022/10/19 13:08:46;;;;;;;0.20;0.20;;;15.70;99.90;;;;;;5093663;28;20482;-79
2022/10/19 13:11:14;;;;;;;0.20;0.20;;;15.60;99.90;;;;;;5091538;28;20040;-81
2022/10/19 13:14:00;;;;;;;0.30;0.30;;;15.60;99.90;;;;;;5082411;28;20481;-79
2022/10/19 13:16:35;;;;;;;0.30;0.30;;;15.50;99.90;;;;;;5083377;28;20082;-81